Time;durP1;ratioP1;P1;durP2;ratioP2;P2;SDS_P1;SDS_P2;PMS_P1;PMS_P2;Temp;Humidity;BMP_temperature;BMP_pressure;BME280_temperature;BME280_humidity;BME280_pressure;Samples;Min_cycle;Max_cycle;Signal;HPM_P1;HPM_P2
2022/12/22 03:27:02;;;;;;;28.97;17.13;;;7.50;1.00;;;;;;5073137;28;20447;-69
2022/12/22 03:29:27;;;;;;;36.57;19.10;;;7.50;1.00;;;;;;5073329;28;20397;-69
2022/12/22 03:31:53;;;;;;;34.73;19.60;;;7.50;1.00;;;;;;5073076;28;20201;-75
2022/12/22 03:34:19;;;;;;;42.50;17.43;;;7.50;1.00;;;;;;5072402;28;20662;-70
2022/12/22 03:36:44;;;;;;;33.30;17.10;;;7.50;1.00;;;;;;5073184;28;20174;-74
2022/12/22 03:39:10;;;;;;;35.00;19.73;;;7.50;1.00;;;;;;5055416;28;20170;-69
2022/12/22 03:47:04;;;;;;;28.33;17.33;;;7.50;1.00;;;;;;5076575;28;20426;-72
2022/12/22 03:49:29;;;;;;;28.07;16.67;;;7.60;1.00;;;;;;5076911;28;20405;-75
2022/12/22 03:51:55;;;;;;;32.40;17.13;;;7.60;1.00;;;;;;5076872;28;20195;-76
2022/12/22 03:54:23;;;;;;;31.80;16.73;;;7.60;1.00;;;;;;5076117;28;20186;-74
2022/12/22 03:56:50;;;;;;;24.87;16.17;;;7.60;1.00;;;;;;5076858;28;20178;-69
2022/12/22 03:59:17;;;;;;;36.97;19.67;;;7.60;1.00;;;;;;5076708;28;20454;-75
2022/12/22 04:01:45;;;;;;;28.57;16.00;;;7.60;1.00;;;;;;5076695;28;20416;-69
2022/12/22 04:04:12;;;;;;;39.57;17.23;;;7.50;1.00;;;;;;5058774;28;20450;-69
2022/12/22 04:06:38;;;;;;;30.63;16.80;;;7.50;1.00;;;;;;5075946;28;20458;-76
2022/12/22 04:09:04;;;;;;;33.70;16.97;;;7.50;1.00;;;;;;5076239;28;20402;-69
2022/12/22 04:14:14;;;;;;;30.60;16.27;;;7.60;1.00;;;;;;5076102;28;20412;-69
2022/12/22 04:16:40;;;;;;;29.13;16.17;;;7.60;1.00;;;;;;5058150;28;20416;-75
2022/12/22 04:19:06;;;;;;;27.63;16.30;;;7.60;1.00;;;;;;5076496;28;20198;-69
2022/12/22 04:21:32;;;;;;;31.90;16.97;;;7.60;1.00;;;;;;5076259;28;20160;-69
2022/12/22 04:23:58;;;;;;;30.70;17.23;;;7.60;1.00;;;;;;5058461;28;20536;-69
2022/12/22 04:26:24;;;;;;;30.23;15.60;;;7.50;1.00;;;;;;5075218;28;20245;-73
2022/12/22 04:28:51;;;;;;;29.30;16.43;;;7.60;1.00;;;;;;5076019;28;20166;-75
2022/12/22 04:31:18;;;;;;;29.23;16.87;;;7.60;1.00;;;;;;5076284;28;20405;-76
2022/12/22 04:33:44;;;;;;;30.97;16.53;;;7.60;1.00;;;;;;5075901;28;20448;-70
2022/12/22 04:36:10;;;;;;;28.97;16.37;;;7.60;1.00;;;;;;5075398;28;20389;-75
2022/12/22 04:38:36;;;;;;;28.03;15.00;;;7.60;1.00;;;;;;5076104;28;20217;-70
2022/12/22 04:41:01;;;;;;;29.20;15.67;;;7.60;1.00;;;;;;5075951;28;20753;-71
2022/12/22 04:43:27;;;;;;;28.50;15.13;;;7.70;1.00;;;;;;5075974;28;20389;-75
2022/12/22 04:45:54;;;;;;;32.00;16.83;;;7.60;1.00;;;;;;5057451;28;20425;-75
2022/12/22 04:48:20;;;;;;;35.57;17.10;;;7.60;1.00;;;;;;5058219;28;20178;-76
2022/12/22 04:50:50;;;;;;;33.80;16.70;;;7.70;1.00;;;;;;5075783;28;20399;-75
2022/12/22 04:53:15;;;;;;;31.07;17.03;;;7.70;1.00;;;;;;5075740;28;20945;-69
2022/12/22 04:55:56;;;;;;;31.03;17.60;;;7.60;1.00;;;;;;5074973;28;20471;-70
2022/12/22 04:58:22;;;;;;;29.50;16.47;;;7.60;1.00;;;;;;5074775;28;20165;-75
2022/12/22 05:00:48;;;;;;;32.23;15.97;;;7.70;1.00;;;;;;5075611;28;20746;-75
2022/12/22 05:03:13;;;;;;;29.90;15.97;;;7.70;1.00;;;;;;5075503;28;20249;-75
2022/12/22 05:05:39;;;;;;;32.47;17.53;;;7.70;1.00;;;;;;5057033;28;20214;-69
2022/12/22 05:08:05;;;;;;;33.17;15.70;;;7.70;1.00;;;;;;5075553;28;20246;-70
2022/12/22 05:10:31;;;;;;;33.77;16.17;;;7.70;1.00;;;;;;5057666;28;20178;-75
2022/12/22 05:12:58;;;;;;;26.77;16.30;;;7.70;1.00;;;;;;5057451;28;20448;-75
2022/12/22 05:15:34;;;;;;;31.53;14.47;;;7.70;1.00;;;;;;5074538;28;20436;-69
2022/12/22 05:18:01;;;;;;;26.70;14.90;;;7.70;1.00;;;;;;5075345;28;20427;-69
2022/12/22 05:20:28;;;;;;;30.97;16.00;;;7.70;1.00;;;;;;5075262;28;20403;-69
2022/12/22 05:22:54;;;;;;;27.30;17.10;;;7.70;1.00;;;;;;5075117;28;20416;-75
2022/12/22 05:25:20;;;;;;;22.93;14.57;;;7.70;1.00;;;;;;5074231;28;20436;-70
2022/12/22 05:27:48;;;;;;;21.50;13.70;;;7.60;1.00;;;;;;5075196;28;20405;-76
2022/12/22 05:30:15;;;;;;;23.23;15.37;;;7.60;1.00;;;;;;5057029;28;20420;-70
2022/12/22 05:32:41;;;;;;;27.50;16.07;;;7.60;1.00;;;;;;5074829;28;20463;-76
2022/12/22 05:35:07;;;;;;;27.57;14.73;;;7.60;1.00;;;;;;5074092;28;20416;-75
2022/12/22 05:37:33;;;;;;;25.00;15.20;;;7.70;1.00;;;;;;5057047;28;20181;-69
2022/12/22 05:39:59;;;;;;;26.33;15.00;;;7.70;1.00;;;;;;5075010;28;20425;-75
2022/12/22 05:42:37;;;;;;;27.73;15.23;;;7.70;1.00;;;;;;5074732;28;20853;-69
2022/12/22 05:45:05;;;;;;;24.30;14.93;;;7.60;1.00;;;;;;5073976;28;20189;-75
2022/12/22 05:47:31;;;;;;;22.93;14.10;;;7.70;1.00;;;;;;5056731;28;20417;-69
2022/12/22 05:49:57;;;;;;;24.00;14.80;;;7.70;1.00;;;;;;5074709;28;20420;-75
2022/12/22 05:52:23;;;;;;;25.30;15.17;;;7.70;1.00;;;;;;5056410;28;20460;-70
2022/12/22 05:54:48;;;;;;;22.23;13.50;;;7.70;1.00;;;;;;5073817;28;20198;-75
2022/12/22 05:57:14;;;;;;;31.30;14.73;;;7.70;1.00;;;;;;5074491;28;20174;-75
2022/12/22 05:59:40;;;;;;;25.80;15.83;;;7.70;1.00;;;;;;5074310;28;20162;-75
2022/12/22 06:02:05;;;;;;;24.40;14.00;;;7.80;1.00;;;;;;5074398;28;20248;-70
2022/12/22 06:04:31;;;;;;;22.93;13.77;;;7.80;1.00;;;;;;5073582;28;20273;-70
2022/12/22 06:06:57;;;;;;;26.87;14.17;;;7.80;1.00;;;;;;5074218;28;20534;-75
2022/12/22 06:09:22;;;;;;;21.73;13.77;;;7.80;1.00;;;;;;5056324;28;20174;-75
2022/12/22 06:11:48;;;;;;;20.83;13.10;;;7.90;1.00;;;;;;5074038;28;20173;-75
2022/12/22 06:14:14;;;;;;;22.27;13.30;;;7.80;1.00;;;;;;5073933;28;20663;-75
2022/12/22 06:16:39;;;;;;;17.27;11.57;;;7.80;1.00;;;;;;5056019;28;20631;-76
2022/12/22 06:19:05;;;;;;;19.97;11.77;;;7.80;1.00;;;;;;5056352;28;20695;-70
2022/12/22 06:21:31;;;;;;;23.87;12.83;;;7.70;1.00;;;;;;5056136;28;20178;-71
2022/12/22 06:23:56;;;;;;;20.13;12.20;;;7.80;1.00;;;;;;5056171;28;20198;-75
2022/12/22 06:26:22;;;;;;;19.33;11.63;;;7.70;1.00;;;;;;5073214;28;20177;-75
2022/12/22 06:28:48;;;;;;;19.80;12.40;;;7.80;1.00;;;;;;5073801;28;20175;-70
2022/12/22 06:31:13;;;;;;;22.83;12.00;;;7.80;1.00;;;;;;5055899;28;20178;-70
2022/12/22 06:33:39;;;;;;;21.37;13.33;;;7.80;1.00;;;;;;5055602;28;20319;-70
2022/12/22 06:36:06;;;;;;;20.70;10.80;;;7.70;1.00;;;;;;5073026;28;20195;-75
2022/12/22 06:38:32;;;;;;;29.93;13.40;;;7.70;1.00;;;;;;5073687;28;20175;-70
2022/12/22 06:40:58;;;;;;;19.20;11.77;;;7.80;1.00;;;;;;5055772;28;20409;-75
2022/12/22 06:43:24;;;;;;;22.00;12.53;;;7.80;1.00;;;;;;5073781;28;20896;-75
2022/12/22 06:45:51;;;;;;;22.23;13.47;;;7.80;1.00;;;;;;5072712;28;20201;-70
2022/12/22 06:48:16;;;;;;;21.73;13.03;;;7.80;1.00;;;;;;5055951;28;20417;-75
2022/12/22 06:50:42;;;;;;;23.23;13.80;;;7.80;1.00;;;;;;5073564;28;20727;-75
2022/12/22 06:53:08;;;;;;;25.50;14.37;;;7.80;1.00;;;;;;5073728;28;20205;-76
2022/12/22 06:55:34;;;;;;;22.70;14.10;;;7.80;1.00;;;;;;5072850;28;20672;-76
2022/12/22 06:58:01;;;;;;;24.73;14.30;;;7.80;1.00;;;;;;5055748;28;20431;-68
2022/12/22 07:00:27;;;;;;;27.23;14.93;;;7.90;1.00;;;;;;5073434;28;20397;-68
2022/12/22 07:02:52;;;;;;;23.57;14.07;;;7.90;1.00;;;;;;5073497;28;20432;-74
2022/12/22 07:05:18;;;;;;;28.00;13.90;;;7.90;1.00;;;;;;5072648;28;20459;-75
2022/12/22 07:07:44;;;;;;;27.33;14.93;;;7.90;1.00;;;;;;5073429;28;20171;-75
2022/12/22 07:10:10;;;;;;;25.40;13.90;;;7.90;1.00;;;;;;5073281;28;20641;-75
2022/12/22 07:12:35;;;;;;;25.67;14.87;;;7.80;1.00;;;;;;5073448;28;20222;-75
2022/12/22 07:15:01;;;;;;;23.10;14.47;;;7.80;1.00;;;;;;5072696;28;20430;-70
2022/12/22 07:17:27;;;;;;;28.13;14.27;;;7.80;1.00;;;;;;5073282;28;20530;-75
2022/12/22 07:19:53;;;;;;;33.13;17.60;;;7.80;1.00;;;;;;5074163;28;20646;-75
2022/12/22 07:22:19;;;;;;;26.87;13.73;;;7.80;1.00;;;;;;5079964;28;20256;-75
2022/12/22 07:24:44;;;;;;;20.33;12.60;;;7.80;1.00;;;;;;5079265;28;20658;-75
2022/12/22 07:27:10;;;;;;;24.13;14.50;;;7.80;1.00;;;;;;5079962;28;20423;-75
2022/12/22 07:29:36;;;;;;;22.90;12.80;;;7.90;1.00;;;;;;5079824;28;20171;-76
2022/12/22 07:32:02;;;;;;;22.63;10.97;;;7.90;1.00;;;;;;5079595;28;20237;-74
2022/12/22 07:34:28;;;;;;;19.90;11.33;;;7.80;1.00;;;;;;5078879;28;20264;-76
2022/12/22 07:36:53;;;;;;;15.97;9.40;;;7.80;1.00;;;;;;5062005;28;20902;-70
2022/12/22 07:39:19;;;;;;;15.83;10.37;;;7.90;1.00;;;;;;5079853;28;20167;-76
2022/12/22 07:44:28;;;;;;;17.30;11.63;;;7.90;1.00;;;;;;5079074;28;20236;-75
2022/12/22 07:46:54;;;;;;;17.27;11.87;;;7.90;1.00;;;;;;5061993;28;20828;-76
2022/12/22 07:52:04;;;;;;;21.53;12.40;;;7.90;1.00;;;;;;5079733;28;20252;-75
2022/12/22 07:54:30;;;;;;;21.13;12.10;;;7.90;1.00;;;;;;5061166;28;20433;-75
2022/12/22 07:56:56;;;;;;;20.70;11.60;;;7.90;1.00;;;;;;5061864;28;20413;-70
2022/12/22 07:59:21;;;;;;;22.60;12.30;;;7.90;1.00;;;;;;5079662;28;20192;-70
2022/12/22 08:01:47;;;;;;;19.83;12.93;;;7.90;1.00;;;;;;5079789;28;20174;-76
2022/12/22 08:04:13;;;;;;;22.63;11.87;;;7.90;1.00;;;;;;5079329;28;20551;-74
2022/12/22 08:06:39;;;;;;;20.53;11.33;;;8.00;1.00;;;;;;5078944;28;20430;-74
2022/12/22 08:09:06;;;;;;;22.93;13.40;;;8.00;1.00;;;;;;5079545;28;20407;-70
2022/12/22 08:11:32;;;;;;;24.10;12.67;;;8.00;1.00;;;;;;5079350;28;20407;-74
2022/12/22 08:13:59;;;;;;;24.17;13.63;;;8.00;1.00;;;;;;5061276;28;20456;-73
2022/12/22 08:16:25;;;;;;;25.17;14.03;;;8.00;1.00;;;;;;5078744;28;20402;-69
2022/12/22 08:18:51;;;;;;;22.40;13.63;;;8.00;1.00;;;;;;5079536;28;20420;-75
2022/12/22 08:21:17;;;;;;;36.50;20.43;;;8.00;1.00;;;;;;5079516;28;20423;-70
2022/12/22 08:23:43;;;;;;;25.10;17.73;;;8.00;1.00;;;;;;5078895;28;20877;-75
2022/12/22 08:26:20;;;;;;;26.07;17.13;;;8.00;1.00;;;;;;5078388;28;20170;-74
2022/12/22 08:29:01;;;;;;;25.10;13.30;;;8.00;1.00;;;;;;5061506;28;20262;-70
2022/12/22 08:31:29;;;;;;;26.90;14.20;;;8.00;1.00;;;;;;5060838;28;20765;-75
2022/12/22 08:33:58;;;;;;;21.90;12.77;;;8.00;1.00;;;;;;5058004;28;20466;-70
2022/12/22 08:36:23;;;;;;;26.00;14.27;;;8.00;1.00;;;;;;5075343;28;20429;-70
2022/12/22 08:38:50;;;;;;;26.40;13.20;;;8.00;1.00;;;;;;5074839;28;20912;-70
2022/12/22 08:41:48;;;;;;;28.03;14.47;;;8.00;1.00;;;;;;5057953;28;20903;-70
2022/12/22 08:44:02;;;;;;;24.10;14.03;;;8.00;1.00;;;;;;5075510;28;20516;-74
2022/12/22 08:46:27;;;;;;;25.77;15.20;;;8.00;1.00;;;;;;5075349;28;20454;-70
2022/12/22 08:48:53;;;;;;;26.10;12.63;;;8.00;1.00;;;;;;5075859;28;20212;-74
2022/12/22 08:51:19;;;;;;;19.63;13.33;;;8.00;1.00;;;;;;5075967;28;20527;-74
2022/12/22 08:53:44;;;;;;;27.10;14.80;;;8.00;1.00;;;;;;5075628;28;20547;-74
2022/12/22 08:56:10;;;;;;;29.60;14.00;;;8.10;1.00;;;;;;5075170;28;20289;-74
2022/12/22 08:58:36;;;;;;;22.80;13.70;;;8.00;1.00;;;;;;5075804;28;20174;-75
2022/12/22 09:01:01;;;;;;;30.83;17.33;;;8.00;1.00;;;;;;5057715;28;20251;-70
2022/12/22 09:03:27;;;;;;;26.90;14.97;;;8.10;1.00;;;;;;5075755;28;20530;-74
2022/12/22 09:06:02;;;;;;;24.93;13.90;;;8.10;1.00;;;;;;5056999;28;20213;-74
2022/12/22 09:08:28;;;;;;;22.17;13.87;;;8.10;1.00;;;;;;5057862;28;20186;-70
2022/12/22 09:10:53;;;;;;;27.40;14.57;;;8.10;1.00;;;;;;5075403;28;20406;-74
2022/12/22 09:13:19;;;;;;;26.87;15.73;;;8.00;1.00;;;;;;5075344;28;20659;-74
2022/12/22 09:15:44;;;;;;;31.73;16.27;;;8.00;1.00;;;;;;5074600;28;20232;-75
2022/12/22 09:18:10;;;;;;;25.67;13.70;;;8.10;1.00;;;;;;5057350;28;20176;-70
2022/12/22 09:20:36;;;;;;;22.57;13.90;;;8.10;1.00;;;;;;5075328;28;20709;-75
2022/12/22 09:23:01;;;;;;;28.20;16.00;;;8.10;1.00;;;;;;5075167;28;20202;-74
2022/12/22 09:25:27;;;;;;;25.80;14.07;;;8.10;1.00;;;;;;5056721;28;20252;-75
2022/12/22 09:27:53;;;;;;;26.17;14.47;;;8.00;1.00;;;;;;5075095;28;20182;-70
2022/12/22 09:30:19;;;;;;;24.80;13.73;;;8.00;1.00;;;;;;5057383;28;20186;-70
2022/12/22 09:32:45;;;;;;;30.13;15.63;;;8.00;1.00;;;;;;5057029;28;20547;-74
2022/12/22 09:35:10;;;;;;;31.63;16.00;;;8.20;1.00;;;;;;5074133;28;20295;-70
2022/12/22 09:37:36;;;;;;;24.17;14.37;;;8.20;1.00;;;;;;5074858;28;20511;-69
2022/12/22 09:40:02;;;;;;;25.27;15.10;;;8.10;1.00;;;;;;5074925;28;20175;-69
2022/12/22 09:42:33;;;;;;;28.63;14.73;;;8.20;1.00;;;;;;5074791;28;20224;-69
2022/12/22 09:44:59;;;;;;;27.57;14.97;;;8.20;1.00;;;;;;5073526;28;20492;-74
2022/12/22 09:47:34;;;;;;;34.50;16.33;;;8.30;1.00;;;;;;5074516;28;20884;-69
2022/12/22 09:50:02;;;;;;;27.37;14.80;;;8.30;1.00;;;;;;5074714;28;20442;-69
2022/12/22 09:52:34;;;;;;;24.07;15.87;;;8.40;1.00;;;;;;5056704;28;21020;-74
2022/12/22 09:55:11;;;;;;;25.70;14.20;;;8.40;1.00;;;;;;5073832;28;20506;-74
2022/12/22 09:57:36;;;;;;;22.67;12.77;;;8.40;1.00;;;;;;5074491;28;20457;-70
2022/12/22 10:00:19;;;;;;;26.60;15.47;;;8.50;1.00;;;;;;5074529;28;20484;-69
2022/12/22 10:03:08;;;;;;;23.40;14.30;;;8.50;1.00;;;;;;5074307;28;20189;-70
2022/12/22 10:05:44;;;;;;;26.23;16.30;;;8.50;1.00;;;;;;5055482;28;20452;-69
2022/12/22 10:08:17;;;;;;;25.27;14.50;;;8.50;1.00;;;;;;5074424;28;20412;-74
2022/12/22 10:10:43;;;;;;;32.50;15.07;;;8.50;1.00;;;;;;5074334;28;20409;-75
2022/12/22 10:13:18;;;;;;;29.47;16.27;;;8.40;1.00;;;;;;5074192;28;20565;-69
2022/12/22 10:15:44;;;;;;;20.67;13.00;;;8.50;1.00;;;;;;5073368;28;20433;-69
2022/12/22 10:18:19;;;;;;;25.70;13.43;;;8.40;1.00;;;;;;5056490;28;20412;-69
2022/12/22 10:21:06;;;;;;;26.27;14.40;;;8.40;1.00;;;;;;5074055;28;20408;-69
2022/12/22 10:23:37;;;;;;;25.33;16.87;;;8.50;1.00;;;;;;5073841;28;20415;-74
2022/12/22 10:26:12;;;;;;;22.23;14.33;;;8.40;1.00;;;;;;5073364;28;20492;-69
2022/12/22 10:28:43;;;;;;;23.67;13.80;;;8.40;1.00;;;;;;5073919;28;20976;-69
2022/12/22 10:31:21;;;;;;;26.30;14.17;;;8.50;1.00;;;;;;5073823;28;20407;-70
2022/12/22 10:33:49;;;;;;;25.67;14.43;;;8.50;1.00;;;;;;5073564;28;20805;-69
2022/12/22 10:36:29;;;;;;;30.87;15.37;;;8.50;1.00;;;;;;5073100;28;20397;-69
2022/12/22 10:39:04;;;;;;;21.03;11.43;;;8.50;1.00;;;;;;5073782;28;20519;-69
2022/12/22 10:41:44;;;;;;;22.53;12.97;;;8.50;1.00;;;;;;5073605;28;20375;-70
2022/12/22 10:44:23;;;;;;;17.93;11.50;;;8.40;1.00;;;;;;5073380;28;20419;-69
2022/12/22 10:46:51;;;;;;;23.00;13.00;;;8.30;1.00;;;;;;5073777;28;20383;-74
2022/12/22 10:49:24;;;;;;;24.73;13.97;;;8.30;1.00;;;;;;5073865;28;20486;-68
2022/12/22 10:51:56;;;;;;;22.10;11.53;;;8.30;1.00;;;;;;5073584;28;20407;-74
2022/12/22 10:54:31;;;;;;;26.50;12.87;;;8.20;1.00;;;;;;5072729;28;20431;-73
2022/12/22 10:57:04;;;;;;;23.13;12.57;;;8.30;1.00;;;;;;5073099;28;20439;-69
2022/12/22 10:59:32;;;;;;;27.37;12.10;;;8.20;1.00;;;;;;5073684;28;20460;-74
2022/12/22 11:02:19;;;;;;;15.97;10.17;;;8.30;1.00;;;;;;5073520;28;20401;-74
2022/12/22 11:04:48;;;;;;;18.83;10.73;;;8.30;1.00;;;;;;5072963;28;20416;-68
2022/12/22 11:07:14;;;;;;;16.80;9.90;;;8.30;1.00;;;;;;5073433;28;20535;-70
2022/12/22 11:09:40;;;;;;;17.67;10.60;;;8.30;1.00;;;;;;5055782;28;20445;-70
2022/12/22 11:12:54;;;;;;;19.27;11.70;;;8.30;1.00;;;;;;5073245;28;20502;-69
2022/12/22 11:15:20;;;;;;;19.30;11.70;;;8.40;99.90;;;;;;5033708;28;20428;-75
2022/12/22 11:18:27;;;;;;;22.77;12.90;;;8.60;1.00;;;;;;5070902;28;20388;-75
2022/12/22 11:21:31;;;;;;;15.50;10.13;;;8.70;99.90;;;;;;5073341;28;20169;-74
2022/12/22 11:24:02;;;;;;;18.00;10.73;;;8.90;99.90;;;;;;5066249;28;20496;-72
2022/12/22 11:27:05;;;;;;;16.03;9.20;;;8.90;99.90;;;;;;5072672;28;20496;-74
2022/12/22 11:29:59;;;;;;;14.27;10.07;;;8.90;99.90;;;;;;5073200;28;20475;-68
2022/12/22 11:32:43;;;;;;;19.83;10.20;;;8.80;99.90;;;;;;5072919;28;20809;-69
2022/12/22 11:35:53;;;;;;;12.37;10.17;;;8.90;99.90;;;;;;5072494;28;20432;-74
2022/12/22 11:38:41;;;;;;;13.27;9.40;;;8.80;99.90;;;;;;5060730;28;20411;-69
2022/12/22 11:41:45;;;;;;;14.83;10.50;;;8.80;99.90;;;;;;5073044;28;20402;-68
2022/12/22 11:44:20;;;;;;;18.23;10.27;;;8.70;99.90;;;;;;5072602;28;20504;-72
2022/12/22 11:47:03;;;;;;;12.33;8.43;;;8.60;99.90;;;;;;5072988;28;20411;-68
2022/12/22 11:50:04;;;;;;;17.80;8.73;;;8.40;99.90;;;;;;5073070;28;20895;-68
2022/12/22 11:52:30;;;;;;;18.77;9.53;;;8.20;99.90;;;;;;5068711;28;20452;-73
2022/12/22 11:55:09;;;;;;;9.30;7.57;;;8.20;99.90;;;;;;5054275;28;20786;-73
2022/12/22 11:57:40;;;;;;;9.13;6.33;;;8.10;99.90;;;;;;5054993;28;20174;-73
2022/12/22 12:00:15;;;;;;;10.40;6.23;;;7.90;99.90;;;;;;5072999;28;20739;-68
2022/12/22 12:03:12;;;;;;;10.10;6.37;;;7.90;99.90;;;;;;5072954;28;20395;-73
2022/12/22 12:05:40;;;;;;;10.67;6.23;;;7.90;99.90;;;;;;5054290;28;20456;-68
2022/12/22 12:08:09;;;;;;;6.97;6.00;;;7.90;99.90;;;;;;5058304;28;20993;-68
2022/12/22 12:10:50;;;;;;;8.80;5.60;;;8.00;99.90;;;;;;5058866;28;20423;-68
2022/12/22 12:13:37;;;;;;;8.50;6.90;;;8.10;99.90;;;;;;5076428;28;20491;-68
2022/12/22 12:16:20;;;;;;;12.30;6.40;;;8.20;99.90;;;;;;5075866;28;20476;-68
2022/12/22 12:19:01;;;;;;;6.90;5.63;;;8.20;99.90;;;;;;5076352;28;20436;-72
2022/12/22 12:21:27;;;;;;;9.83;7.03;;;8.10;99.90;;;;;;5076388;28;20404;-67
2022/12/22 12:24:19;;;;;;;9.50;6.50;;;8.00;99.90;;;;;;5076356;28;20515;-68
2022/12/22 12:27:29;;;;;;;13.50;7.07;;;8.00;99.90;;;;;;5076229;28;20849;-68
2022/12/22 12:30:17;;;;;;;12.13;6.80;;;8.00;99.90;;;;;;5065262;28;20421;-67
2022/12/22 12:32:54;;;;;;;8.70;6.97;;;8.10;99.90;;;;;;5058027;28;20456;-68
2022/12/22 12:35:52;;;;;;;8.50;5.80;;;8.20;99.90;;;;;;5075535;28;20438;-73
2022/12/22 12:38:28;;;;;;;14.73;7.03;;;8.20;99.90;;;;;;5076065;28;20726;-68
2022/12/22 12:41:00;;;;;;;8.53;5.40;;;8.20;99.90;;;;;;5075929;28;20422;-72
2022/12/22 12:43:26;;;;;;;10.40;6.73;;;8.00;99.90;;;;;;5075898;28;20443;-74
2022/12/22 12:45:54;;;;;;;16.13;6.40;;;7.90;99.90;;;;;;5075104;28;20432;-73
2022/12/22 12:48:19;;;;;;;14.73;7.33;;;7.90;99.90;;;;;;5057872;28;20404;-68
2022/12/22 12:50:56;;;;;;;11.53;6.17;;;7.90;99.90;;;;;;5075573;28;20411;-68
2022/12/22 12:53:23;;;;;;;11.70;6.90;;;7.90;99.90;;;;;;5057837;28;20281;-68
2022/12/22 12:55:50;;;;;;;14.80;6.70;;;7.90;99.90;;;;;;5057322;28;20444;-67
2022/12/22 12:58:34;;;;;;;12.80;7.17;;;7.90;99.90;;;;;;5075615;28;20479;-67
2022/12/22 13:01:01;;;;;;;8.87;6.03;;;7.90;99.90;;;;;;5075602;28;20426;-72
2022/12/22 13:03:26;;;;;;;7.73;5.40;;;7.90;99.90;;;;;;5075879;28;20961;-72
2022/12/22 13:05:53;;;;;;;12.33;6.13;;;7.80;99.90;;;;;;5074821;28;20436;-73
2022/12/22 13:08:51;;;;;;;8.13;6.13;;;7.80;99.90;;;;;;5075646;28;20200;-75
2022/12/22 13:11:18;;;;;;;10.10;7.17;;;7.70;99.90;;;;;;5069553;28;20820;-68
2022/12/22 13:13:46;;;;;;;7.30;5.30;;;7.70;99.90;;;;;;5075290;28;20968;-72
2022/12/22 13:16:15;;;;;;;14.53;6.90;;;7.60;99.90;;;;;;5074775;28;20385;-72
2022/12/22 13:18:45;;;;;;;13.63;6.37;;;7.50;99.90;;;;;;5074502;28;20401;-72
2022/12/22 13:21:26;;;;;;;10.70;6.90;;;7.50;99.90;;;;;;5075242;28;20523;-72
2022/12/22 13:23:55;;;;;;;11.70;6.27;;;7.50;99.90;;;;;;5075218;28;20415;-66
2022/12/22 13:26:33;;;;;;;8.93;6.13;;;7.50;99.90;;;;;;5074459;28;20393;-73
2022/12/22 13:29:17;;;;;;;9.43;6.37;;;7.40;99.90;;;;;;5075158;28;20779;-73
2022/12/22 13:31:50;;;;;;;6.77;6.13;;;7.40;99.90;;;;;;5075066;28;20418;-67
2022/12/22 13:34:31;;;;;;;11.00;7.40;;;7.40;99.90;;;;;;5074516;28;20797;-70
2022/12/22 13:37:02;;;;;;;8.23;6.13;;;7.30;99.90;;;;;;5074897;28;20904;-67
2022/12/22 13:39:28;;;;;;;10.23;6.60;;;7.30;99.90;;;;;;5074853;28;20400;-73
2022/12/22 13:41:56;;;;;;;17.83;7.70;;;7.30;99.90;;;;;;5074838;28;20958;-67
2022/12/22 13:44:28;;;;;;;20.80;7.23;;;7.30;99.90;;;;;;5074167;28;20285;-71
2022/12/22 13:47:00;;;;;;;11.50;6.60;;;7.30;99.90;;;;;;5074689;28;20401;-72
2022/12/22 13:49:28;;;;;;;11.83;7.40;;;7.30;99.90;;;;;;5074604;28;20404;-72
2022/12/22 13:51:54;;;;;;;9.33;6.40;;;7.30;99.90;;;;;;5074774;28;20474;-68
2022/12/22 13:54:30;;;;;;;10.87;6.90;;;7.30;99.90;;;;;;5073788;28;20466;-71
2022/12/22 13:56:58;;;;;;;9.10;6.43;;;7.30;99.90;;;;;;5074542;28;20523;-67
2022/12/22 13:59:34;;;;;;;9.20;7.00;;;7.30;99.90;;;;;;5074286;28;20546;-68
2022/12/22 14:02:10;;;;;;;12.63;6.47;;;7.30;99.90;;;;;;5074546;28;20428;-67
2022/12/22 14:04:38;;;;;;;12.60;5.20;;;7.20;99.90;;;;;;5073503;28;20424;-71
2022/12/22 14:07:13;;;;;;;11.30;6.63;;;7.20;99.90;;;;;;5074413;28;21051;-67
2022/12/22 14:09:47;;;;;;;8.47;6.10;;;7.10;99.90;;;;;;5074271;28;20400;-71
2022/12/22 14:12:23;;;;;;;9.57;6.00;;;7.10;99.90;;;;;;5074276;28;20501;-67
2022/12/22 14:14:50;;;;;;;12.87;5.50;;;7.10;99.90;;;;;;5073527;28;20423;-72
2022/12/22 14:17:39;;;;;;;13.50;6.40;;;7.00;99.90;;;;;;5074187;28;20479;-72
2022/12/22 14:20:23;;;;;;;11.60;5.50;;;7.00;99.90;;;;;;5074170;28;20749;-72
2022/12/22 14:22:53;;;;;;;12.90;6.53;;;7.00;99.90;;;;;;5074053;28;20927;-67
2022/12/22 14:25:28;;;;;;;10.80;6.73;;;6.90;99.90;;;;;;5075192;28;20439;-72
2022/12/22 14:27:55;;;;;;;12.00;7.03;;;6.90;99.90;;;;;;5071428;28;20436;-72
2022/12/22 14:30:33;;;;;;;12.10;6.60;;;6.90;99.90;;;;;;5067947;28;20966;-72
2022/12/22 14:33:28;;;;;;;14.87;8.20;;;6.90;99.90;;;;;;5055679;28;20992;-69
2022/12/22 14:36:23;;;;;;;17.07;8.63;;;6.90;99.90;;;;;;5061818;28;20440;-67
2022/12/22 14:38:53;;;;;;;12.00;7.70;;;6.80;99.90;;;;;;5068454;28;20431;-67
2022/12/22 14:41:42;;;;;;;15.73;8.30;;;6.80;99.90;;;;;;5072893;28;20456;-73
2022/12/22 14:44:22;;;;;;;10.90;7.80;;;6.80;99.90;;;;;;5073200;28;20490;-72
2022/12/22 14:47:10;;;;;;;24.90;8.43;;;6.80;99.90;;;;;;5068676;28;20763;-67
2022/12/22 14:49:42;;;;;;;10.90;8.40;;;6.80;99.90;;;;;;5051469;28;20755;-73
2022/12/22 14:52:20;;;;;;;10.60;7.40;;;6.80;99.90;;;;;;5085656;28;20437;-73
2022/12/22 14:54:48;;;;;;;13.87;8.43;;;6.80;99.90;;;;;;5086602;28;20566;-68
2022/12/22 14:57:21;;;;;;;7.03;6.33;;;6.90;99.90;;;;;;5061660;28;20478;-67
2022/12/22 15:00:06;;;;;;;16.27;7.73;;;6.90;99.90;;;;;;5040748;28;20881;-67
2022/12/22 15:02:38;;;;;;;11.47;8.20;;;6.90;99.90;;;;;;5053571;28;20408;-73
2022/12/22 15:05:34;;;;;;;13.30;7.17;;;6.90;99.90;;;;;;5034722;28;20534;-67
2022/12/22 15:08:01;;;;;;;11.70;8.30;;;6.90;99.90;;;;;;5053377;28;20484;-67
2022/12/22 15:10:33;;;;;;;18.00;8.87;;;7.00;99.90;;;;;;5053373;28;20440;-67
2022/12/22 15:13:04;;;;;;;19.90;9.80;;;6.90;99.90;;;;;;5053242;28;20453;-73
2022/12/22 15:15:32;;;;;;;21.87;8.60;;;6.90;99.90;;;;;;5034727;28;20429;-67
2022/12/22 15:17:57;;;;;;;13.40;8.33;;;7.00;99.90;;;;;;5053183;28;20413;-72
2022/12/22 15:20:26;;;;;;;10.80;7.63;;;7.00;99.90;;;;;;5053361;28;20393;-73
2022/12/22 15:22:52;;;;;;;12.70;7.00;;;7.00;99.90;;;;;;5053242;28;20170;-73
2022/12/22 15:25:21;;;;;;;14.00;9.07;;;7.00;99.90;;;;;;5052574;28;20428;-67
2022/12/22 15:27:47;;;;;;;17.17;8.23;;;7.00;99.90;;;;;;5053172;28;20401;-72
2022/12/22 15:30:16;;;;;;;9.77;7.53;;;7.00;99.90;;;;;;5053029;28;20402;-67
2022/12/22 15:32:43;;;;;;;12.13;8.03;;;7.00;99.90;;;;;;5053063;28;20441;-67
2022/12/22 15:35:17;;;;;;;17.83;9.97;;;7.00;99.90;;;;;;5052414;28;20413;-67
2022/12/22 15:37:42;;;;;;;13.63;7.30;;;7.00;99.90;;;;;;5053076;28;20404;-73
2022/12/22 15:40:20;;;;;;;22.10;8.70;;;7.10;99.90;;;;;;5055883;28;20428;-68
2022/12/22 15:42:47;;;;;;;9.40;7.20;;;7.00;99.90;;;;;;5075044;28;20212;-67
2022/12/22 15:45:14;;;;;;;8.80;6.37;;;7.10;99.90;;;;;;5091922;28;20514;-72
2022/12/22 15:47:42;;;;;;;13.77;7.37;;;7.10;99.90;;;;;;5074453;28;20839;-72
2022/12/22 15:50:15;;;;;;;14.33;6.60;;;7.20;99.90;;;;;;5076115;28;20793;-71
2022/12/22 15:52:44;;;;;;;18.43;7.00;;;7.20;99.90;;;;;;5075880;28;20450;-67
2022/12/22 15:55:14;;;;;;;9.73;6.23;;;7.20;99.90;;;;;;5075181;28;20819;-66
2022/12/22 15:57:40;;;;;;;10.67;6.20;;;7.20;99.90;;;;;;5076767;28;20495;-71
2022/12/22 16:00:11;;;;;;;21.27;8.00;;;7.20;99.90;;;;;;5076738;28;20396;-67
2022/12/22 16:02:36;;;;;;;21.97;6.83;;;7.20;99.90;;;;;;5056660;28;20435;-67
2022/12/22 16:05:02;;;;;;;9.63;6.27;;;7.20;99.90;;;;;;5071245;28;20444;-66
2022/12/22 16:07:30;;;;;;;7.33;5.30;;;7.20;99.90;;;;;;5085303;28;20253;-69
2022/12/22 16:09:56;;;;;;;11.43;5.87;;;7.20;99.90;;;;;;5081950;28;20530;-72
2022/12/22 16:12:22;;;;;;;14.83;6.20;;;7.20;99.90;;;;;;5096753;28;20478;-67
2022/12/22 16:14:51;;;;;;;13.10;6.00;;;7.20;99.90;;;;;;5086267;28;20434;-67
2022/12/22 16:17:20;;;;;;;10.00;6.03;;;7.30;99.90;;;;;;5074485;28;20424;-68
2022/12/22 16:19:46;;;;;;;15.00;6.93;;;7.30;99.90;;;;;;5083870;28;20401;-72
2022/12/22 16:22:14;;;;;;;14.47;6.77;;;7.30;99.90;;;;;;5075860;28;20396;-65
2022/12/22 16:24:44;;;;;;;6.33;5.57;;;7.30;99.90;;;;;;5076447;28;20432;-72
2022/12/22 16:27:14;;;;;;;9.67;6.87;;;7.40;99.90;;;;;;5063498;28;20433;-72
2022/12/22 16:29:47;;;;;;;15.97;8.33;;;7.40;99.90;;;;;;5080410;28;20428;-67
2022/12/22 16:32:22;;;;;;;10.80;5.73;;;7.40;99.90;;;;;;5072475;28;20417;-67
2022/12/22 16:34:48;;;;;;;14.60;6.77;;;7.40;99.90;;;;;;5075164;28;20427;-72
2022/12/22 16:37:14;;;;;;;14.30;7.17;;;7.30;99.90;;;;;;5073627;28;20421;-73
2022/12/22 16:39:39;;;;;;;13.43;7.10;;;7.30;99.90;;;;;;5076150;28;20166;-67
2022/12/22 16:42:13;;;;;;;12.20;6.83;;;7.30;99.90;;;;;;5075989;28;20428;-73
2022/12/22 16:44:41;;;;;;;10.00;6.60;;;7.40;99.90;;;;;;5057275;28;20229;-68
2022/12/22 16:47:40;;;;;;;10.37;6.77;;;7.30;99.90;;;;;;5071742;28;20399;-72